sensor_id;sensor_type;location;lat;lon;timestamp;P1;durP1;ratioP1;P2;durP2;ratioP2
24389;SDS011;12510;56.468;-3.004;2023-02-14T00:00:27;23.63;;;19.98;;
24389;SDS011;12510;56.468;-3.004;2023-02-14T00:02:54;26.45;;;20.00;;
24389;SDS011;12510;56.468;-3.004;2023-02-14T00:05:21;23.17;;;17.77;;
24389;SDS011;12510;56.468;-3.004;2023-02-14T00:07:48;23.05;;;19.10;;
24389;SDS011;12510;56.468;-3.004;2023-02-14T00:10:14;23.30;;;18.88;;
24389;SDS011;12510;56.468;-3.004;2023-02-14T00:12:41;24.63;;;19.90;;
24389;SDS011;12510;56.468;-3.004;2023-02-14T00:15:08;22.63;;;18.42;;
24389;SDS011;12510;56.468;-3.004;2023-02-14T00:17:48;25.15;;;19.70;;
24389;SDS011;12510;56.468;-3.004;2023-02-14T00:20:20;24.30;;;18.35;;
24389;SDS011;12510;56.468;-3.004;2023-02-14T00:22:47;24.30;;;20.23;;
24389;SDS011;12510;56.468;-3.004;2023-02-14T00:25:14;25.77;;;18.98;;
24389;SDS011;12510;56.468;-3.004;2023-02-14T00:27:41;23.60;;;19.83;;
24389;SDS011;12510;56.468;-3.004;2023-02-14T00:30:08;23.80;;;18.30;;
24389;SDS011;12510;56.468;-3.004;2023-02-14T00:32:38;25.52;;;19.90;;
24389;SDS011;12510;56.468;-3.004;2023-02-14T00:35:06;26.42;;;18.50;;
24389;SDS011;12510;56.468;-3.004;2023-02-14T00:37:34;24.25;;;20.17;;
24389;SDS011;12510;56.468;-3.004;2023-02-14T00:40:01;26.00;;;20.23;;
24389;SDS011;12510;56.468;-3.004;2023-02-14T00:42:27;25.23;;;19.08;;
24389;SDS011;12510;56.468;-3.004;2023-02-14T00:44:54;23.95;;;18.30;;
24389;SDS011;12510;56.468;-3.004;2023-02-14T00:47:20;22.35;;;18.77;;
24389;SDS011;12510;56.468;-3.004;2023-02-14T00:49:46;25.80;;;18.08;;
24389;SDS011;12510;56.468;-3.004;2023-02-14T00:52:13;25.23;;;19.38;;
24389;SDS011;12510;56.468;-3.004;2023-02-14T00:54:39;24.80;;;18.80;;
24389;SDS011;12510;56.468;-3.004;2023-02-14T00:57:06;23.08;;;18.35;;
24389;SDS011;12510;56.468;-3.004;2023-02-14T00:59:32;24.40;;;19.17;;
24389;SDS011;12510;56.468;-3.004;2023-02-14T01:01:59;23.33;;;18.65;;
24389;SDS011;12510;56.468;-3.004;2023-02-14T01:04:25;27.10;;;20.85;;
24389;SDS011;12510;56.468;-3.004;2023-02-14T01:06:52;25.13;;;19.65;;
24389;SDS011;12510;56.468;-3.004;2023-02-14T01:09:19;27.00;;;21.42;;
24389;SDS011;12510;56.468;-3.004;2023-02-14T01:11:45;28.40;;;20.75;;
24389;SDS011;12510;56.468;-3.004;2023-02-14T01:14:14;24.33;;;20.38;;
24389;SDS011;12510;56.468;-3.004;2023-02-14T01:16:41;24.58;;;19.00;;
24389;SDS011;12510;56.468;-3.004;2023-02-14T01:19:08;24.95;;;20.58;;
24389;SDS011;12510;56.468;-3.004;2023-02-14T01:21:34;27.80;;;20.95;;
24389;SDS011;12510;56.468;-3.004;2023-02-14T01:24:02;24.95;;;20.75;;
24389;SDS011;12510;56.468;-3.004;2023-02-14T01:26:31;23.08;;;19.30;;
24389;SDS011;12510;56.468;-3.004;2023-02-14T01:29:00;24.48;;;20.02;;
24389;SDS011;12510;56.468;-3.004;2023-02-14T01:31:29;25.40;;;19.38;;
24389;SDS011;12510;56.468;-3.004;2023-02-14T01:33:56;24.92;;;19.10;;
24389;SDS011;12510;56.468;-3.004;2023-02-14T01:36:28;24.77;;;19.73;;
24389;SDS011;12510;56.468;-3.004;2023-02-14T01:38:58;26.60;;;20.15;;
24389;SDS011;12510;56.468;-3.004;2023-02-14T01:41:28;29.83;;;21.27;;
24389;SDS011;12510;56.468;-3.004;2023-02-14T01:43:59;26.33;;;20.52;;
24389;SDS011;12510;56.468;-3.004;2023-02-14T01:46:33;25.65;;;20.15;;
24389;SDS011;12510;56.468;-3.004;2023-02-14T01:51:36;29.35;;;22.00;;
24389;SDS011;12510;56.468;-3.004;2023-02-14T01:54:06;25.85;;;20.08;;
24389;SDS011;12510;56.468;-3.004;2023-02-14T01:56:34;26.42;;;20.10;;
24389;SDS011;12510;56.468;-3.004;2023-02-14T01:59:05;27.58;;;21.48;;
24389;SDS011;12510;56.468;-3.004;2023-02-14T02:04:11;23.55;;;18.15;;
24389;SDS011;12510;56.468;-3.004;2023-02-14T02:06:45;27.05;;;20.63;;
24389;SDS011;12510;56.468;-3.004;2023-02-14T02:09:19;24.20;;;19.50;;
24389;SDS011;12510;56.468;-3.004;2023-02-14T02:11:50;24.63;;;19.00;;
24389;SDS011;12510;56.468;-3.004;2023-02-14T02:14:18;24.52;;;19.25;;
24389;SDS011;12510;56.468;-3.004;2023-02-14T02:45:30;27.38;;;20.75;;
24389;SDS011;12510;56.468;-3.004;2023-02-14T02:48:05;30.02;;;22.58;;
24389;SDS011;12510;56.468;-3.004;2023-02-14T02:50:44;27.83;;;20.95;;
24389;SDS011;12510;56.468;-3.004;2023-02-14T02:53:52;27.00;;;20.65;;
24389;SDS011;12510;56.468;-3.004;2023-02-14T02:56:25;25.38;;;19.05;;
24389;SDS011;12510;56.468;-3.004;2023-02-14T02:59:19;26.95;;;20.33;;
24389;SDS011;12510;56.468;-3.004;2023-02-14T03:04:51;27.02;;;20.27;;
24389;SDS011;12510;56.468;-3.004;2023-02-14T03:07:36;24.92;;;19.67;;
24389;SDS011;12510;56.468;-3.004;2023-02-14T03:15:07;27.33;;;21.02;;
24389;SDS011;12510;56.468;-3.004;2023-02-14T03:23:40;26.17;;;19.63;;
24389;SDS011;12510;56.468;-3.004;2023-02-14T03:32:26;29.67;;;22.17;;
24389;SDS011;12510;56.468;-3.004;2023-02-14T03:37:48;26.90;;;21.13;;
24389;SDS011;12510;56.468;-3.004;2023-02-14T03:40:43;30.17;;;21.33;;
24389;SDS011;12510;56.468;-3.004;2023-02-14T03:43:17;29.63;;;21.73;;
24389;SDS011;12510;56.468;-3.004;2023-02-14T03:45:48;30.73;;;21.80;;
24389;SDS011;12510;56.468;-3.004;2023-02-14T03:48:20;28.38;;;20.98;;
24389;SDS011;12510;56.468;-3.004;2023-02-14T03:53:18;29.30;;;21.58;;
24389;SDS011;12510;56.468;-3.004;2023-02-14T03:56:25;26.17;;;21.60;;
24389;SDS011;12510;56.468;-3.004;2023-02-14T03:58:46;28.65;;;21.83;;
24389;SDS011;12510;56.468;-3.004;2023-02-14T04:01:27;32.30;;;23.58;;
24389;SDS011;12510;56.468;-3.004;2023-02-14T04:04:01;27.83;;;21.27;;
24389;SDS011;12510;56.468;-3.004;2023-02-14T04:06:31;30.83;;;21.83;;
24389;SDS011;12510;56.468;-3.004;2023-02-14T04:08:57;30.45;;;22.27;;
24389;SDS011;12510;56.468;-3.004;2023-02-14T04:11:24;33.00;;;23.85;;
24389;SDS011;12510;56.468;-3.004;2023-02-14T04:13:50;27.70;;;21.45;;
24389;SDS011;12510;56.468;-3.004;2023-02-14T04:16:16;28.50;;;21.73;;
24389;SDS011;12510;56.468;-3.004;2023-02-14T04:18:43;29.40;;;23.65;;
24389;SDS011;12510;56.468;-3.004;2023-02-14T04:21:28;28.38;;;22.50;;
24389;SDS011;12510;56.468;-3.004;2023-02-14T04:23:54;30.40;;;21.83;;
24389;SDS011;12510;56.468;-3.004;2023-02-14T04:26:21;28.58;;;22.23;;
24389;SDS011;12510;56.468;-3.004;2023-02-14T04:28:47;28.40;;;21.23;;
24389;SDS011;12510;56.468;-3.004;2023-02-14T04:31:14;29.42;;;22.88;;
24389;SDS011;12510;56.468;-3.004;2023-02-14T04:33:40;27.45;;;22.08;;
24389;SDS011;12510;56.468;-3.004;2023-02-14T04:36:07;26.17;;;22.52;;
24389;SDS011;12510;56.468;-3.004;2023-02-14T04:38:33;29.58;;;23.40;;
24389;SDS011;12510;56.468;-3.004;2023-02-14T04:41:00;26.63;;;22.13;;
24389;SDS011;12510;56.468;-3.004;2023-02-14T04:43:26;28.80;;;22.20;;
24389;SDS011;12510;56.468;-3.004;2023-02-14T04:45:53;30.05;;;23.60;;
24389;SDS011;12510;56.468;-3.004;2023-02-14T04:48:19;32.25;;;25.02;;
24389;SDS011;12510;56.468;-3.004;2023-02-14T04:50:49;27.92;;;22.17;;
24389;SDS011;12510;56.468;-3.004;2023-02-14T04:53:20;29.95;;;22.45;;
24389;SDS011;12510;56.468;-3.004;2023-02-14T04:55:49;26.38;;;22.35;;
24389;SDS011;12510;56.468;-3.004;2023-02-14T04:58:16;30.30;;;23.35;;
24389;SDS011;12510;56.468;-3.004;2023-02-14T05:00:43;25.17;;;21.95;;
24389;SDS011;12510;56.468;-3.004;2023-02-14T05:03:09;27.40;;;22.25;;
24389;SDS011;12510;56.468;-3.004;2023-02-14T05:05:36;26.55;;;22.70;;
24389;SDS011;12510;56.468;-3.004;2023-02-14T05:08:02;30.10;;;23.33;;
24389;SDS011;12510;56.468;-3.004;2023-02-14T05:10:29;28.70;;;22.73;;
24389;SDS011;12510;56.468;-3.004;2023-02-14T05:12:55;27.58;;;22.17;;
24389;SDS011;12510;56.468;-3.004;2023-02-14T05:15:22;27.58;;;23.05;;
24389;SDS011;12510;56.468;-3.004;2023-02-14T05:17:48;25.92;;;21.98;;
24389;SDS011;12510;56.468;-3.004;2023-02-14T05:20:15;23.65;;;20.40;;
24389;SDS011;12510;56.468;-3.004;2023-02-14T05:22:41;25.40;;;22.13;;
24389;SDS011;12510;56.468;-3.004;2023-02-14T05:25:07;25.25;;;21.92;;
24389;SDS011;12510;56.468;-3.004;2023-02-14T05:27:34;27.10;;;21.92;;
24389;SDS011;12510;56.468;-3.004;2023-02-14T05:30:00;27.33;;;22.33;;
24389;SDS011;12510;56.468;-3.004;2023-02-14T05:32:27;25.38;;;22.00;;
24389;SDS011;12510;56.468;-3.004;2023-02-14T05:34:53;25.15;;;21.73;;
24389;SDS011;12510;56.468;-3.004;2023-02-14T05:37:19;30.80;;;22.90;;
24389;SDS011;12510;56.468;-3.004;2023-02-14T05:39:46;29.50;;;23.33;;
24389;SDS011;12510;56.468;-3.004;2023-02-14T05:42:12;26.75;;;22.58;;
24389;SDS011;12510;56.468;-3.004;2023-02-14T05:44:39;28.70;;;22.00;;
24389;SDS011;12510;56.468;-3.004;2023-02-14T05:47:05;27.38;;;22.38;;
24389;SDS011;12510;56.468;-3.004;2023-02-14T05:49:33;28.77;;;23.30;;
24389;SDS011;12510;56.468;-3.004;2023-02-14T05:52:00;29.40;;;23.08;;
24389;SDS011;12510;56.468;-3.004;2023-02-14T05:54:27;27.60;;;22.20;;
24389;SDS011;12510;56.468;-3.004;2023-02-14T05:56:53;27.85;;;22.10;;
24389;SDS011;12510;56.468;-3.004;2023-02-14T05:59:19;32.40;;;24.15;;
24389;SDS011;12510;56.468;-3.004;2023-02-14T06:01:46;30.52;;;23.42;;
24389;SDS011;12510;56.468;-3.004;2023-02-14T06:04:12;30.77;;;24.05;;
24389;SDS011;12510;56.468;-3.004;2023-02-14T06:06:39;29.13;;;23.52;;
24389;SDS011;12510;56.468;-3.004;2023-02-14T06:09:05;30.60;;;23.67;;
24389;SDS011;12510;56.468;-3.004;2023-02-14T06:11:32;27.83;;;22.05;;
24389;SDS011;12510;56.468;-3.004;2023-02-14T06:13:58;32.75;;;24.23;;
24389;SDS011;12510;56.468;-3.004;2023-02-14T06:16:24;29.08;;;21.88;;
24389;SDS011;12510;56.468;-3.004;2023-02-14T06:18:51;31.75;;;24.92;;
24389;SDS011;12510;56.468;-3.004;2023-02-14T06:21:17;28.98;;;22.98;;
24389;SDS011;12510;56.468;-3.004;2023-02-14T06:23:44;30.10;;;23.63;;
24389;SDS011;12510;56.468;-3.004;2023-02-14T06:26:10;29.42;;;23.30;;
24389;SDS011;12510;56.468;-3.004;2023-02-14T06:28:36;29.40;;;23.38;;
24389;SDS011;12510;56.468;-3.004;2023-02-14T06:31:03;31.35;;;23.50;;
24389;SDS011;12510;56.468;-3.004;2023-02-14T06:33:29;32.45;;;24.58;;
24389;SDS011;12510;56.468;-3.004;2023-02-14T06:35:56;29.48;;;22.80;;
24389;SDS011;12510;56.468;-3.004;2023-02-14T06:38:22;31.58;;;24.20;;
24389;SDS011;12510;56.468;-3.004;2023-02-14T06:40:49;29.05;;;23.33;;
24389;SDS011;12510;56.468;-3.004;2023-02-14T06:43:15;30.08;;;24.10;;
24389;SDS011;12510;56.468;-3.004;2023-02-14T06:45:42;30.27;;;23.00;;
24389;SDS011;12510;56.468;-3.004;2023-02-14T06:48:08;31.70;;;23.80;;
24389;SDS011;12510;56.468;-3.004;2023-02-14T06:50:35;28.50;;;21.85;;
24389;SDS011;12510;56.468;-3.004;2023-02-14T06:53:01;29.65;;;23.00;;
24389;SDS011;12510;56.468;-3.004;2023-02-14T06:55:28;34.03;;;24.52;;
24389;SDS011;12510;56.468;-3.004;2023-02-14T06:57:54;31.38;;;24.05;;
24389;SDS011;12510;56.468;-3.004;2023-02-14T07:00:21;28.52;;;23.48;;
24389;SDS011;12510;56.468;-3.004;2023-02-14T07:02:47;30.40;;;24.08;;
24389;SDS011;12510;56.468;-3.004;2023-02-14T07:05:13;37.35;;;25.80;;
24389;SDS011;12510;56.468;-3.004;2023-02-14T07:07:44;31.83;;;24.33;;
24389;SDS011;12510;56.468;-3.004;2023-02-14T07:10:11;32.80;;;25.35;;
24389;SDS011;12510;56.468;-3.004;2023-02-14T07:12:37;33.50;;;25.05;;
24389;SDS011;12510;56.468;-3.004;2023-02-14T07:15:08;36.17;;;26.60;;
24389;SDS011;12510;56.468;-3.004;2023-02-14T07:17:36;28.23;;;22.10;;
24389;SDS011;12510;56.468;-3.004;2023-02-14T07:20:03;35.17;;;25.67;;
24389;SDS011;12510;56.468;-3.004;2023-02-14T07:22:32;32.13;;;24.02;;
24389;SDS011;12510;56.468;-3.004;2023-02-14T07:24:59;34.70;;;24.95;;
24389;SDS011;12510;56.468;-3.004;2023-02-14T07:27:26;34.00;;;25.90;;
24389;SDS011;12510;56.468;-3.004;2023-02-14T07:29:53;32.03;;;25.00;;
24389;SDS011;12510;56.468;-3.004;2023-02-14T07:32:19;31.23;;;25.33;;
24389;SDS011;12510;56.468;-3.004;2023-02-14T07:34:46;33.25;;;25.15;;
24389;SDS011;12510;56.468;-3.004;2023-02-14T07:37:13;33.60;;;26.02;;
24389;SDS011;12510;56.468;-3.004;2023-02-14T07:39:39;32.22;;;25.58;;
24389;SDS011;12510;56.468;-3.004;2023-02-14T07:42:05;32.88;;;25.77;;
24389;SDS011;12510;56.468;-3.004;2023-02-14T07:44:33;32.53;;;26.00;;
24389;SDS011;12510;56.468;-3.004;2023-02-14T07:46:59;32.72;;;24.83;;
24389;SDS011;12510;56.468;-3.004;2023-02-14T07:49:26;34.67;;;27.15;;
24389;SDS011;12510;56.468;-3.004;2023-02-14T07:51:52;33.00;;;26.27;;
24389;SDS011;12510;56.468;-3.004;2023-02-14T07:54:18;31.52;;;25.70;;
24389;SDS011;12510;56.468;-3.004;2023-02-14T07:56:45;35.22;;;26.40;;
24389;SDS011;12510;56.468;-3.004;2023-02-14T07:59:11;33.22;;;25.65;;
24389;SDS011;12510;56.468;-3.004;2023-02-14T08:01:38;36.47;;;28.65;;
24389;SDS011;12510;56.468;-3.004;2023-02-14T08:04:04;32.33;;;25.23;;
24389;SDS011;12510;56.468;-3.004;2023-02-14T08:06:31;29.00;;;24.10;;
24389;SDS011;12510;56.468;-3.004;2023-02-14T08:08:58;33.28;;;26.15;;
24389;SDS011;12510;56.468;-3.004;2023-02-14T08:11:24;34.83;;;26.70;;
24389;SDS011;12510;56.468;-3.004;2023-02-14T08:14:09;32.13;;;26.23;;
24389;SDS011;12510;56.468;-3.004;2023-02-14T08:16:36;33.95;;;26.55;;
24389;SDS011;12510;56.468;-3.004;2023-02-14T08:19:04;33.70;;;26.65;;
24389;SDS011;12510;56.468;-3.004;2023-02-14T08:21:30;39.00;;;27.23;;
24389;SDS011;12510;56.468;-3.004;2023-02-14T08:23:57;33.40;;;26.45;;
24389;SDS011;12510;56.468;-3.004;2023-02-14T08:26:23;33.75;;;27.63;;
24389;SDS011;12510;56.468;-3.004;2023-02-14T08:28:50;35.55;;;27.85;;
24389;SDS011;12510;56.468;-3.004;2023-02-14T08:31:21;33.85;;;26.63;;
24389;SDS011;12510;56.468;-3.004;2023-02-14T08:33:49;33.88;;;26.95;;
24389;SDS011;12510;56.468;-3.004;2023-02-14T08:36:16;32.08;;;27.42;;
24389;SDS011;12510;56.468;-3.004;2023-02-14T08:38:43;36.80;;;26.83;;
24389;SDS011;12510;56.468;-3.004;2023-02-14T08:41:16;30.55;;;26.98;;
24389;SDS011;12510;56.468;-3.004;2023-02-14T08:43:43;32.03;;;26.95;;
24389;SDS011;12510;56.468;-3.004;2023-02-14T08:46:10;29.33;;;25.38;;
24389;SDS011;12510;56.468;-3.004;2023-02-14T08:48:37;29.10;;;24.52;;
24389;SDS011;12510;56.468;-3.004;2023-02-14T08:51:05;27.92;;;24.67;;
24389;SDS011;12510;56.468;-3.004;2023-02-14T08:53:32;30.63;;;24.80;;
24389;SDS011;12510;56.468;-3.004;2023-02-14T08:56:03;26.98;;;23.88;;
24389;SDS011;12510;56.468;-3.004;2023-02-14T08:58:31;25.85;;;23.10;;
24389;SDS011;12510;56.468;-3.004;2023-02-14T09:00:58;26.90;;;24.00;;
24389;SDS011;12510;56.468;-3.004;2023-02-14T09:03:24;25.20;;;22.60;;
24389;SDS011;12510;56.468;-3.004;2023-02-14T09:05:51;24.08;;;21.67;;
24389;SDS011;12510;56.468;-3.004;2023-02-14T09:08:17;26.35;;;23.55;;
24389;SDS011;12510;56.468;-3.004;2023-02-14T09:10:44;25.13;;;22.63;;
24389;SDS011;12510;56.468;-3.004;2023-02-14T09:13:10;22.63;;;20.35;;
24389;SDS011;12510;56.468;-3.004;2023-02-14T09:15:37;22.55;;;20.35;;
24389;SDS011;12510;56.468;-3.004;2023-02-14T09:18:03;22.67;;;20.38;;
24389;SDS011;12510;56.468;-3.004;2023-02-14T09:20:30;22.52;;;20.42;;
24389;SDS011;12510;56.468;-3.004;2023-02-14T09:22:56;22.15;;;19.85;;
24389;SDS011;12510;56.468;-3.004;2023-02-14T09:25:23;21.33;;;19.13;;
24389;SDS011;12510;56.468;-3.004;2023-02-14T09:27:49;21.83;;;19.73;;
24389;SDS011;12510;56.468;-3.004;2023-02-14T09:30:15;21.40;;;19.30;;
24389;SDS011;12510;56.468;-3.004;2023-02-14T09:32:42;23.02;;;20.65;;
24389;SDS011;12510;56.468;-3.004;2023-02-14T09:35:08;22.48;;;19.67;;
24389;SDS011;12510;56.468;-3.004;2023-02-14T09:37:35;23.23;;;20.83;;
24389;SDS011;12510;56.468;-3.004;2023-02-14T09:40:01;25.17;;;20.83;;
24389;SDS011;12510;56.468;-3.004;2023-02-14T09:45:18;118.28;;;34.63;;
24389;SDS011;12510;56.468;-3.004;2023-02-14T09:47:51;65.68;;;29.02;;
24389;SDS011;12510;56.468;-3.004;2023-02-14T09:50:47;61.28;;;27.08;;
24389;SDS011;12510;56.468;-3.004;2023-02-14T09:53:19;23.92;;;21.40;;
24389;SDS011;12510;56.468;-3.004;2023-02-14T09:59:03;22.95;;;20.13;;
24389;SDS011;12510;56.468;-3.004;2023-02-14T10:01:41;23.05;;;20.75;;
24389;SDS011;12510;56.468;-3.004;2023-02-14T10:06:48;23.10;;;20.58;;
24389;SDS011;12510;56.468;-3.004;2023-02-14T10:11:51;22.60;;;20.35;;
24389;SDS011;12510;56.468;-3.004;2023-02-14T10:14:22;23.45;;;21.10;;
24389;SDS011;12510;56.468;-3.004;2023-02-14T10:16:52;25.65;;;22.95;;
24389;SDS011;12510;56.468;-3.004;2023-02-14T10:19:34;23.40;;;21.13;;
24389;SDS011;12510;56.468;-3.004;2023-02-14T10:22:16;23.67;;;21.27;;
24389;SDS011;12510;56.468;-3.004;2023-02-14T10:24:47;23.60;;;21.08;;
24389;SDS011;12510;56.468;-3.004;2023-02-14T10:30:23;24.17;;;20.27;;
24389;SDS011;12510;56.468;-3.004;2023-02-14T10:33:01;23.13;;;20.75;;
24389;SDS011;12510;56.468;-3.004;2023-02-14T10:46:40;25.90;;;20.83;;
24389;SDS011;12510;56.468;-3.004;2023-02-14T10:54:54;22.70;;;20.40;;
24389;SDS011;12510;56.468;-3.004;2023-02-14T10:57:36;22.02;;;19.80;;
24389;SDS011;12510;56.468;-3.004;2023-02-14T11:00:16;23.60;;;21.15;;
24389;SDS011;12510;56.468;-3.004;2023-02-14T11:02:55;22.75;;;20.38;;
24389;SDS011;12510;56.468;-3.004;2023-02-14T11:05:40;23.70;;;20.90;;
24389;SDS011;12510;56.468;-3.004;2023-02-14T11:08:33;22.30;;;20.10;;
24389;SDS011;12510;56.468;-3.004;2023-02-14T11:11:04;23.70;;;21.17;;
24389;SDS011;12510;56.468;-3.004;2023-02-14T11:13:41;22.70;;;20.40;;
24389;SDS011;12510;56.468;-3.004;2023-02-14T11:16:09;21.35;;;19.25;;
24389;SDS011;12510;56.468;-3.004;2023-02-14T11:18:38;23.70;;;21.10;;
24389;SDS011;12510;56.468;-3.004;2023-02-14T11:21:09;22.63;;;20.35;;
24389;SDS011;12510;56.468;-3.004;2023-02-14T11:23:39;22.90;;;20.50;;
24389;SDS011;12510;56.468;-3.004;2023-02-14T11:26:13;22.25;;;20.08;;
24389;SDS011;12510;56.468;-3.004;2023-02-14T11:31:31;21.83;;;19.65;;
24389;SDS011;12510;56.468;-3.004;2023-02-14T11:34:01;22.17;;;19.98;;
24389;SDS011;12510;56.468;-3.004;2023-02-14T11:36:44;22.95;;;20.63;;
24389;SDS011;12510;56.468;-3.004;2023-02-14T11:39:19;20.95;;;18.90;;
24389;SDS011;12510;56.468;-3.004;2023-02-14T11:41:53;23.35;;;20.13;;
24389;SDS011;12510;56.468;-3.004;2023-02-14T11:44:23;22.15;;;20.00;;
24389;SDS011;12510;56.468;-3.004;2023-02-14T11:46:52;20.92;;;18.75;;
24389;SDS011;12510;56.468;-3.004;2023-02-14T11:49:28;20.00;;;18.10;;
24389;SDS011;12510;56.468;-3.004;2023-02-14T11:52:09;21.27;;;19.27;;
24389;SDS011;12510;56.468;-3.004;2023-02-14T11:54:41;21.42;;;19.33;;
24389;SDS011;12510;56.468;-3.004;2023-02-14T11:57:16;21.48;;;19.10;;
24389;SDS011;12510;56.468;-3.004;2023-02-14T11:59:54;21.45;;;19.38;;
24389;SDS011;12510;56.468;-3.004;2023-02-14T12:02:30;21.85;;;19.65;;
24389;SDS011;12510;56.468;-3.004;2023-02-14T12:04:58;22.20;;;18.65;;
24389;SDS011;12510;56.468;-3.004;2023-02-14T12:07:29;21.13;;;19.13;;
24389;SDS011;12510;56.468;-3.004;2023-02-14T12:10:17;21.05;;;18.95;;
24389;SDS011;12510;56.468;-3.004;2023-02-14T12:12:48;20.40;;;18.27;;
24389;SDS011;12510;56.468;-3.004;2023-02-14T12:17:58;19.90;;;17.90;;
24389;SDS011;12510;56.468;-3.004;2023-02-14T12:25:59;21.30;;;18.63;;
24389;SDS011;12510;56.468;-3.004;2023-02-14T12:28:38;19.40;;;17.58;;
24389;SDS011;12510;56.468;-3.004;2023-02-14T12:31:16;19.23;;;17.23;;
24389;SDS011;12510;56.468;-3.004;2023-02-14T12:33:44;22.27;;;19.63;;
24389;SDS011;12510;56.468;-3.004;2023-02-14T12:41:55;19.85;;;17.83;;
24389;SDS011;12510;56.468;-3.004;2023-02-14T12:47:03;20.67;;;17.20;;
24389;SDS011;12510;56.468;-3.004;2023-02-14T12:57:56;19.23;;;17.33;;
24389;SDS011;12510;56.468;-3.004;2023-02-14T13:06:03;17.60;;;15.90;;
24389;SDS011;12510;56.468;-3.004;2023-02-14T13:11:16;18.63;;;16.73;;
24389;SDS011;12510;56.468;-3.004;2023-02-14T13:19:16;17.65;;;15.70;;
24389;SDS011;12510;56.468;-3.004;2023-02-14T13:21:57;17.25;;;14.63;;
24389;SDS011;12510;56.468;-3.004;2023-02-14T13:24:27;17.75;;;16.08;;
24389;SDS011;12510;56.468;-3.004;2023-02-14T13:26:58;16.10;;;14.50;;
24389;SDS011;12510;56.468;-3.004;2023-02-14T13:29:27;16.92;;;15.32;;
24389;SDS011;12510;56.468;-3.004;2023-02-14T13:32:02;18.23;;;15.23;;
24389;SDS011;12510;56.468;-3.004;2023-02-14T13:34:31;19.23;;;15.30;;
24389;SDS011;12510;56.468;-3.004;2023-02-14T13:37:02;18.00;;;15.32;;
24389;SDS011;12510;56.468;-3.004;2023-02-14T13:39:34;28.45;;;17.45;;
24389;SDS011;12510;56.468;-3.004;2023-02-14T13:42:03;17.17;;;15.38;;
24389;SDS011;12510;56.468;-3.004;2023-02-14T13:44:40;16.95;;;15.25;;
24389;SDS011;12510;56.468;-3.004;2023-02-14T13:47:15;23.50;;;17.05;;
24389;SDS011;12510;56.468;-3.004;2023-02-14T13:49:50;54.17;;;19.75;;
24389;SDS011;12510;56.468;-3.004;2023-02-14T13:55:27;32.28;;;19.33;;
24389;SDS011;12510;56.468;-3.004;2023-02-14T13:58:12;33.33;;;18.77;;
24389;SDS011;12510;56.468;-3.004;2023-02-14T14:00:43;20.40;;;15.52;;
24389;SDS011;12510;56.468;-3.004;2023-02-14T14:03:51;25.15;;;16.88;;
24389;SDS011;12510;56.468;-3.004;2023-02-14T14:06:11;31.75;;;18.58;;
24389;SDS011;12510;56.468;-3.004;2023-02-14T14:11:10;18.83;;;16.15;;
24389;SDS011;12510;56.468;-3.004;2023-02-14T14:13:59;39.60;;;19.13;;
24389;SDS011;12510;56.468;-3.004;2023-02-14T14:16:28;22.00;;;17.33;;
24389;SDS011;12510;56.468;-3.004;2023-02-14T14:19:03;22.08;;;17.60;;
24389;SDS011;12510;56.468;-3.004;2023-02-14T14:21:38;25.10;;;18.83;;
24389;SDS011;12510;56.468;-3.004;2023-02-14T14:26:45;20.10;;;17.88;;
24389;SDS011;12510;56.468;-3.004;2023-02-14T14:29:32;23.00;;;18.95;;
24389;SDS011;12510;56.468;-3.004;2023-02-14T14:34:36;22.23;;;18.33;;
24389;SDS011;12510;56.468;-3.004;2023-02-14T14:37:04;24.92;;;18.90;;
24389;SDS011;12510;56.468;-3.004;2023-02-14T14:39:33;23.38;;;19.25;;
24389;SDS011;12510;56.468;-3.004;2023-02-14T14:42:04;26.27;;;19.85;;
24389;SDS011;12510;56.468;-3.004;2023-02-14T14:44:33;22.30;;;19.35;;
24389;SDS011;12510;56.468;-3.004;2023-02-14T14:47:00;24.70;;;19.80;;
24389;SDS011;12510;56.468;-3.004;2023-02-14T14:49:27;31.73;;;22.27;;
24389;SDS011;12510;56.468;-3.004;2023-02-14T14:51:54;26.92;;;22.05;;
24389;SDS011;12510;56.468;-3.004;2023-02-14T14:54:22;19.48;;;17.38;;
24389;SDS011;12510;56.468;-3.004;2023-02-14T14:56:53;23.02;;;19.15;;
24389;SDS011;12510;56.468;-3.004;2023-02-14T15:01:50;25.38;;;18.67;;
24389;SDS011;12510;56.468;-3.004;2023-02-14T15:04:29;21.20;;;17.80;;
24389;SDS011;12510;56.468;-3.004;2023-02-14T15:07:15;19.77;;;17.15;;
24389;SDS011;12510;56.468;-3.004;2023-02-14T15:09:48;31.80;;;18.45;;
24389;SDS011;12510;56.468;-3.004;2023-02-14T15:12:17;22.42;;;17.40;;
24389;SDS011;12510;56.468;-3.004;2023-02-14T15:17:35;20.83;;;17.58;;
24389;SDS011;12510;56.468;-3.004;2023-02-14T15:20:06;19.95;;;17.63;;
24389;SDS011;12510;56.468;-3.004;2023-02-14T15:22:41;19.33;;;17.38;;
24389;SDS011;12510;56.468;-3.004;2023-02-14T15:25:26;22.80;;;18.42;;
24389;SDS011;12510;56.468;-3.004;2023-02-14T15:27:56;21.88;;;18.00;;
24389;SDS011;12510;56.468;-3.004;2023-02-14T15:30:27;19.40;;;17.02;;
24389;SDS011;12510;56.468;-3.004;2023-02-14T15:33:02;20.30;;;18.38;;
24389;SDS011;12510;56.468;-3.004;2023-02-14T15:35:31;20.33;;;18.27;;
24389;SDS011;12510;56.468;-3.004;2023-02-14T15:38:00;20.88;;;18.75;;
24389;SDS011;12510;56.468;-3.004;2023-02-14T15:40:30;19.23;;;17.33;;
24389;SDS011;12510;56.468;-3.004;2023-02-14T15:45:58;19.52;;;17.52;;
24389;SDS011;12510;56.468;-3.004;2023-02-14T15:48:39;20.58;;;18.48;;
24389;SDS011;12510;56.468;-3.004;2023-02-14T15:51:13;20.77;;;18.77;;
24389;SDS011;12510;56.468;-3.004;2023-02-14T15:53:48;20.80;;;18.58;;
24389;SDS011;12510;56.468;-3.004;2023-02-14T15:56:19;25.60;;;19.20;;
24389;SDS011;12510;56.468;-3.004;2023-02-14T15:59:02;21.17;;;19.08;;
24389;SDS011;12510;56.468;-3.004;2023-02-14T16:01:32;19.92;;;17.83;;
24389;SDS011;12510;56.468;-3.004;2023-02-14T16:04:01;21.77;;;19.50;;
24389;SDS011;12510;56.468;-3.004;2023-02-14T16:06:31;20.42;;;18.42;;
24389;SDS011;12510;56.468;-3.004;2023-02-14T16:09:03;22.45;;;18.80;;
24389;SDS011;12510;56.468;-3.004;2023-02-14T16:11:32;20.70;;;18.60;;
24389;SDS011;12510;56.468;-3.004;2023-02-14T16:14:19;22.38;;;19.00;;
24389;SDS011;12510;56.468;-3.004;2023-02-14T16:17:03;21.33;;;18.10;;
24389;SDS011;12510;56.468;-3.004;2023-02-14T16:19:36;23.27;;;20.05;;
24389;SDS011;12510;56.468;-3.004;2023-02-14T16:24:57;21.55;;;18.98;;
24389;SDS011;12510;56.468;-3.004;2023-02-14T16:27:24;21.33;;;19.23;;
24389;SDS011;12510;56.468;-3.004;2023-02-14T16:29:50;21.23;;;19.05;;
24389;SDS011;12510;56.468;-3.004;2023-02-14T16:32:19;24.73;;;19.90;;
24389;SDS011;12510;56.468;-3.004;2023-02-14T16:34:46;21.63;;;18.48;;
24389;SDS011;12510;56.468;-3.004;2023-02-14T16:37:21;24.92;;;19.58;;
24389;SDS011;12510;56.468;-3.004;2023-02-14T16:39:48;21.80;;;19.45;;
24389;SDS011;12510;56.468;-3.004;2023-02-14T16:42:18;19.73;;;17.73;;
24389;SDS011;12510;56.468;-3.004;2023-02-14T16:44:45;20.98;;;18.75;;
24389;SDS011;12510;56.468;-3.004;2023-02-14T16:47:13;22.65;;;19.55;;
24389;SDS011;12510;56.468;-3.004;2023-02-14T16:49:41;20.20;;;18.05;;
24389;SDS011;12510;56.468;-3.004;2023-02-14T16:52:10;20.50;;;18.38;;
24389;SDS011;12510;56.468;-3.004;2023-02-14T16:54:39;21.27;;;19.02;;
24389;SDS011;12510;56.468;-3.004;2023-02-14T16:57:06;21.90;;;18.85;;
24389;SDS011;12510;56.468;-3.004;2023-02-14T16:59:39;21.30;;;18.73;;